Lynnwood, Washington
Current Conditions -  °F | °C
As of 7:53 PM on Friday 24 Oct 2014 (Local Time) from KPAE Reporting Station
Overcast Overcast  
Wind Chill: 52°   Ceiling: 9000
Heat Index: 52°   Visibility: 10mi
Dew Point: 46°   Wind: 3mph
Humidity: 80%   Direction: 10°N
Pressure: 29.87"   Gusts: NA
Location:  47.83°N, 122.29°W
Report Text: KPAE 250253Z 01003KT 10SM SCT065 OVC090 11/08 A2987 RMK AO2 SLP114 T01110078 56015
Loading
Personal Weather Stations






























Interactive Weather Map
Tropical Storm Tracking
New forecast layout! Learn more

10-Day Weather Forecast

Advertisements
Track Severe Weather on mobile